Welcome, Minnesota
Current Conditions -  °F | °C
As of 1:35 AM on Saturday 25 Oct 2014 (Local Time) from KFRM Reporting Station
Clear Clear  
Wind Chill: 57°   Ceiling: Unl
Heat Index: 57°   Visibility: 10mi
Dew Point:   Wind: 10mph
Humidity: 10%   Direction: 310°NW
Pressure: 29.99"   Gusts: NA
Location:  43.67°N, 94.62°W
Report Text: KFRM 250635Z AUTO 31009KT 10SM CLR 14/M17 A2999 RMK AO1
Loading
Personal Weather Stations






























Interactive Weather Map
Tropical Storm Tracking
New forecast layout! Learn more

10-Day Weather Forecast

Advertisements
Track Severe Weather on mobile